sensor_id;sensor_type;location;lat;lon;timestamp;temperature;humidity
64143;DHT22;50437;51.970;5.904;2022-07-29T00:00:54;17.90;55.40
64143;DHT22;50437;51.970;5.904;2022-07-29T00:03:20;17.90;55.40
64143;DHT22;50437;51.970;5.904;2022-07-29T00:05:45;17.90;55.70
64143;DHT22;50437;51.970;5.904;2022-07-29T00:08:11;17.70;55.80
64143;DHT22;50437;51.970;5.904;2022-07-29T00:10:37;17.80;56.00
64143;DHT22;50437;51.970;5.904;2022-07-29T00:13:03;17.80;56.20
64143;DHT22;50437;51.970;5.904;2022-07-29T00:15:29;17.70;55.90
64143;DHT22;50437;51.970;5.904;2022-07-29T00:17:56;17.60;56.40
64143;DHT22;50437;51.970;5.904;2022-07-29T00:20:22;17.60;56.50
64143;DHT22;50437;51.970;5.904;2022-07-29T00:22:48;17.60;56.70
64143;DHT22;50437;51.970;5.904;2022-07-29T00:25:14;17.60;57.00
64143;DHT22;50437;51.970;5.904;2022-07-29T00:27:40;17.60;56.90
64143;DHT22;50437;51.970;5.904;2022-07-29T00:30:06;17.60;56.80
64143;DHT22;50437;51.970;5.904;2022-07-29T00:32:32;17.40;57.70
64143;DHT22;50437;51.970;5.904;2022-07-29T00:34:58;17.40;57.70
64143;DHT22;50437;51.970;5.904;2022-07-29T00:37:43;17.40;57.60
64143;DHT22;50437;51.970;5.904;2022-07-29T00:40:09;17.50;57.60
64143;DHT22;50437;51.970;5.904;2022-07-29T00:42:45;17.60;57.30
64143;DHT22;50437;51.970;5.904;2022-07-29T00:45:12;17.60;57.00
64143;DHT22;50437;51.970;5.904;2022-07-29T00:47:38;17.60;57.10
64143;DHT22;50437;51.970;5.904;2022-07-29T00:50:04;17.50;57.10
64143;DHT22;50437;51.970;5.904;2022-07-29T00:52:31;17.60;57.40
64143;DHT22;50437;51.970;5.904;2022-07-29T00:54:57;17.60;57.40
64143;DHT22;50437;51.970;5.904;2022-07-29T00:57:22;17.50;57.70
64143;DHT22;50437;51.970;5.904;2022-07-29T00:59:49;17.50;57.50
64143;DHT22;50437;51.970;5.904;2022-07-29T01:02:14;17.50;57.60
64143;DHT22;50437;51.970;5.904;2022-07-29T01:04:40;17.50;57.60
64143;DHT22;50437;51.970;5.904;2022-07-29T01:07:06;17.50;57.60
64143;DHT22;50437;51.970;5.904;2022-07-29T01:09:33;17.50;57.70
64143;DHT22;50437;51.970;5.904;2022-07-29T01:11:59;17.50;57.90
64143;DHT22;50437;51.970;5.904;2022-07-29T01:14:25;17.50;58.00
64143;DHT22;50437;51.970;5.904;2022-07-29T01:16:54;17.50;58.00
64143;DHT22;50437;51.970;5.904;2022-07-29T01:19:36;17.50;58.00
64143;DHT22;50437;51.970;5.904;2022-07-29T01:22:10;17.40;58.00
64143;DHT22;50437;51.970;5.904;2022-07-29T01:24:52;17.40;58.50
64143;DHT22;50437;51.970;5.904;2022-07-29T01:27:32;17.40;58.20
64143;DHT22;50437;51.970;5.904;2022-07-29T01:30:03;17.40;58.40
64143;DHT22;50437;51.970;5.904;2022-07-29T01:32:29;17.40;58.20
64143;DHT22;50437;51.970;5.904;2022-07-29T01:35:17;17.30;58.10
64143;DHT22;50437;51.970;5.904;2022-07-29T01:37:52;17.40;58.00
64143;DHT22;50437;51.970;5.904;2022-07-29T01:40:25;17.40;58.20
64143;DHT22;50437;51.970;5.904;2022-07-29T01:42:56;17.40;58.00
64143;DHT22;50437;51.970;5.904;2022-07-29T01:47:56;17.30;58.30
64143;DHT22;50437;51.970;5.904;2022-07-29T01:50:26;17.30;58.50
64143;DHT22;50437;51.970;5.904;2022-07-29T01:52:58;17.30;58.60
64143;DHT22;50437;51.970;5.904;2022-07-29T01:55:26;17.30;58.50
64143;DHT22;50437;51.970;5.904;2022-07-29T01:57:53;17.40;58.40
64143;DHT22;50437;51.970;5.904;2022-07-29T02:00:20;17.40;58.20
64143;DHT22;50437;51.970;5.904;2022-07-29T02:02:47;17.50;58.30
64143;DHT22;50437;51.970;5.904;2022-07-29T02:05:14;17.50;58.10
64143;DHT22;50437;51.970;5.904;2022-07-29T02:07:42;17.50;58.00
64143;DHT22;50437;51.970;5.904;2022-07-29T02:10:09;17.50;58.00
64143;DHT22;50437;51.970;5.904;2022-07-29T02:12:36;17.50;58.20
64143;DHT22;50437;51.970;5.904;2022-07-29T02:15:03;17.60;61.70
64143;DHT22;50437;51.970;5.904;2022-07-29T02:17:35;17.60;66.50
64143;DHT22;50437;51.970;5.904;2022-07-29T02:20:04;17.50;68.60
64143;DHT22;50437;51.970;5.904;2022-07-29T02:22:31;17.40;68.90
64143;DHT22;50437;51.970;5.904;2022-07-29T02:24:59;17.30;68.50
64143;DHT22;50437;51.970;5.904;2022-07-29T02:27:25;17.30;70.40
64143;DHT22;50437;51.970;5.904;2022-07-29T02:29:52;17.20;71.30
64143;DHT22;50437;51.970;5.904;2022-07-29T02:32:19;17.10;72.40
64143;DHT22;50437;51.970;5.904;2022-07-29T02:34:46;17.10;69.80
64143;DHT22;50437;51.970;5.904;2022-07-29T02:37:13;17.10;71.60
64143;DHT22;50437;51.970;5.904;2022-07-29T02:39:40;17.00;69.90
64143;DHT22;50437;51.970;5.904;2022-07-29T02:42:08;17.00;69.40
64143;DHT22;50437;51.970;5.904;2022-07-29T02:44:35;17.00;71.00
64143;DHT22;50437;51.970;5.904;2022-07-29T02:47:04;17.00;69.20
64143;DHT22;50437;51.970;5.904;2022-07-29T02:49:43;17.00;70.80
64143;DHT22;50437;51.970;5.904;2022-07-29T02:52:22;17.00;69.70
64143;DHT22;50437;51.970;5.904;2022-07-29T02:57:44;16.90;69.80
64143;DHT22;50437;51.970;5.904;2022-07-29T03:00:08;16.80;69.10
64143;DHT22;50437;51.970;5.904;2022-07-29T03:02:36;16.70;68.90
64143;DHT22;50437;51.970;5.904;2022-07-29T03:05:03;16.70;70.80
64143;DHT22;50437;51.970;5.904;2022-07-29T03:07:29;16.70;69.00
64143;DHT22;50437;51.970;5.904;2022-07-29T03:09:56;16.50;66.40
64143;DHT22;50437;51.970;5.904;2022-07-29T03:12:22;16.50;67.80
64143;DHT22;50437;51.970;5.904;2022-07-29T03:14:49;16.40;69.30
64143;DHT22;50437;51.970;5.904;2022-07-29T03:17:15;16.40;70.30
64143;DHT22;50437;51.970;5.904;2022-07-29T03:19:42;16.40;70.00
64143;DHT22;50437;51.970;5.904;2022-07-29T03:22:08;16.40;71.00
64143;DHT22;50437;51.970;5.904;2022-07-29T03:24:35;16.30;72.00
64143;DHT22;50437;51.970;5.904;2022-07-29T03:27:02;16.20;71.70
64143;DHT22;50437;51.970;5.904;2022-07-29T03:29:28;16.20;73.90
64143;DHT22;50437;51.970;5.904;2022-07-29T03:31:54;15.90;75.00
64143;DHT22;50437;51.970;5.904;2022-07-29T03:34:20;15.90;75.40
64143;DHT22;50437;51.970;5.904;2022-07-29T03:36:46;15.80;74.30
64143;DHT22;50437;51.970;5.904;2022-07-29T03:39:13;15.80;76.20
64143;DHT22;50437;51.970;5.904;2022-07-29T03:41:40;15.70;77.10
64143;DHT22;50437;51.970;5.904;2022-07-29T03:44:08;15.80;77.20
64143;DHT22;50437;51.970;5.904;2022-07-29T03:46:35;15.80;77.10
64143;DHT22;50437;51.970;5.904;2022-07-29T03:49:01;15.80;79.60
64143;DHT22;50437;51.970;5.904;2022-07-29T03:51:28;15.90;78.70
64143;DHT22;50437;51.970;5.904;2022-07-29T03:53:54;15.80;77.90
64143;DHT22;50437;51.970;5.904;2022-07-29T03:56:21;15.60;78.80
64143;DHT22;50437;51.970;5.904;2022-07-29T03:58:49;15.70;78.40
64143;DHT22;50437;51.970;5.904;2022-07-29T04:01:15;15.50;77.20
64143;DHT22;50437;51.970;5.904;2022-07-29T04:03:43;15.60;79.70
64143;DHT22;50437;51.970;5.904;2022-07-29T04:06:10;15.60;78.30
64143;DHT22;50437;51.970;5.904;2022-07-29T04:08:37;15.50;78.10
64143;DHT22;50437;51.970;5.904;2022-07-29T04:11:03;15.60;78.50
64143;DHT22;50437;51.970;5.904;2022-07-29T04:13:30;15.60;78.70
64143;DHT22;50437;51.970;5.904;2022-07-29T04:15:56;15.50;79.20
64143;DHT22;50437;51.970;5.904;2022-07-29T04:18:22;15.50;79.60
64143;DHT22;50437;51.970;5.904;2022-07-29T04:20:48;15.40;77.80
64143;DHT22;50437;51.970;5.904;2022-07-29T04:23:14;15.40;75.90
64143;DHT22;50437;51.970;5.904;2022-07-29T04:25:41;15.50;79.10
64143;DHT22;50437;51.970;5.904;2022-07-29T04:28:07;15.50;78.70
64143;DHT22;50437;51.970;5.904;2022-07-29T04:30:34;15.60;76.50
64143;DHT22;50437;51.970;5.904;2022-07-29T04:33:00;15.60;80.00
64143;DHT22;50437;51.970;5.904;2022-07-29T04:35:28;15.70;78.90
64143;DHT22;50437;51.970;5.904;2022-07-29T04:37:54;15.60;78.40
64143;DHT22;50437;51.970;5.904;2022-07-29T04:40:20;15.60;79.60
64143;DHT22;50437;51.970;5.904;2022-07-29T04:42:46;15.60;79.00
64143;DHT22;50437;51.970;5.904;2022-07-29T04:45:12;15.60;78.20
64143;DHT22;50437;51.970;5.904;2022-07-29T04:47:38;15.50;78.00
64143;DHT22;50437;51.970;5.904;2022-07-29T04:50:04;15.40;78.50
64143;DHT22;50437;51.970;5.904;2022-07-29T04:52:31;15.50;79.20
64143;DHT22;50437;51.970;5.904;2022-07-29T04:54:57;15.40;77.90
64143;DHT22;50437;51.970;5.904;2022-07-29T04:57:23;15.50;76.60
64143;DHT22;50437;51.970;5.904;2022-07-29T04:59:49;15.40;78.50
64143;DHT22;50437;51.970;5.904;2022-07-29T05:02:15;15.50;78.00
64143;DHT22;50437;51.970;5.904;2022-07-29T05:04:41;15.40;76.90
64143;DHT22;50437;51.970;5.904;2022-07-29T05:07:07;15.50;76.90
64143;DHT22;50437;51.970;5.904;2022-07-29T05:09:33;15.40;76.60
64143;DHT22;50437;51.970;5.904;2022-07-29T05:11:59;15.60;78.60
64143;DHT22;50437;51.970;5.904;2022-07-29T05:14:25;15.60;78.60
64143;DHT22;50437;51.970;5.904;2022-07-29T05:16:51;15.60;76.40
64143;DHT22;50437;51.970;5.904;2022-07-29T05:19:17;15.60;76.80
64143;DHT22;50437;51.970;5.904;2022-07-29T05:21:44;15.60;75.60
64143;DHT22;50437;51.970;5.904;2022-07-29T05:24:10;15.70;75.90
64143;DHT22;50437;51.970;5.904;2022-07-29T05:26:36;15.70;75.10
64143;DHT22;50437;51.970;5.904;2022-07-29T05:29:02;15.70;75.10
64143;DHT22;50437;51.970;5.904;2022-07-29T05:31:28;15.80;76.00
64143;DHT22;50437;51.970;5.904;2022-07-29T05:33:54;15.90;76.30
64143;DHT22;50437;51.970;5.904;2022-07-29T05:36:20;15.70;76.40
64143;DHT22;50437;51.970;5.904;2022-07-29T05:38:45;15.70;76.10
64143;DHT22;50437;51.970;5.904;2022-07-29T05:41:11;15.60;75.50
64143;DHT22;50437;51.970;5.904;2022-07-29T05:43:37;15.80;76.20
64143;DHT22;50437;51.970;5.904;2022-07-29T05:46:03;15.80;76.40
64143;DHT22;50437;51.970;5.904;2022-07-29T05:48:29;15.90;76.20
64143;DHT22;50437;51.970;5.904;2022-07-29T05:50:55;15.90;76.10
64143;DHT22;50437;51.970;5.904;2022-07-29T05:53:21;15.90;75.20
64143;DHT22;50437;51.970;5.904;2022-07-29T05:55:47;16.00;75.50
64143;DHT22;50437;51.970;5.904;2022-07-29T05:58:13;16.00;73.80
64143;DHT22;50437;51.970;5.904;2022-07-29T06:00:39;16.20;75.60
64143;DHT22;50437;51.970;5.904;2022-07-29T06:03:05;16.30;74.30
64143;DHT22;50437;51.970;5.904;2022-07-29T06:05:31;16.40;74.30
64143;DHT22;50437;51.970;5.904;2022-07-29T06:07:57;16.50;71.90
64143;DHT22;50437;51.970;5.904;2022-07-29T06:10:23;16.40;73.00
64143;DHT22;50437;51.970;5.904;2022-07-29T06:12:50;16.30;71.90
64143;DHT22;50437;51.970;5.904;2022-07-29T06:15:16;16.40;72.80
64143;DHT22;50437;51.970;5.904;2022-07-29T06:17:42;16.50;73.50
64143;DHT22;50437;51.970;5.904;2022-07-29T06:20:08;16.60;73.40
64143;DHT22;50437;51.970;5.904;2022-07-29T06:22:34;16.70;72.40
64143;DHT22;50437;51.970;5.904;2022-07-29T06:25:00;16.70;72.70
64143;DHT22;50437;51.970;5.904;2022-07-29T06:27:26;16.70;71.20
64143;DHT22;50437;51.970;5.904;2022-07-29T06:29:52;16.90;72.40
64143;DHT22;50437;51.970;5.904;2022-07-29T06:32:18;16.90;70.20
64143;DHT22;50437;51.970;5.904;2022-07-29T06:34:44;17.00;70.30
64143;DHT22;50437;51.970;5.904;2022-07-29T06:37:10;17.10;68.60
64143;DHT22;50437;51.970;5.904;2022-07-29T06:39:37;17.20;69.90
64143;DHT22;50437;51.970;5.904;2022-07-29T06:42:03;17.20;66.80
64143;DHT22;50437;51.970;5.904;2022-07-29T06:44:30;17.20;69.40
64143;DHT22;50437;51.970;5.904;2022-07-29T06:46:56;17.40;68.40
64143;DHT22;50437;51.970;5.904;2022-07-29T06:49:22;17.40;67.50
64143;DHT22;50437;51.970;5.904;2022-07-29T06:51:50;17.60;67.00
64143;DHT22;50437;51.970;5.904;2022-07-29T06:54:15;18.10;66.20
64143;DHT22;50437;51.970;5.904;2022-07-29T06:56:41;18.70;63.80
64143;DHT22;50437;51.970;5.904;2022-07-29T06:59:09;19.10;61.30
64143;DHT22;50437;51.970;5.904;2022-07-29T07:01:36;19.30;61.20
64143;DHT22;50437;51.970;5.904;2022-07-29T07:04:02;19.40;60.10
64143;DHT22;50437;51.970;5.904;2022-07-29T07:06:28;19.30;60.10
64143;DHT22;50437;51.970;5.904;2022-07-29T07:08:54;19.40;58.70
64143;DHT22;50437;51.970;5.904;2022-07-29T07:11:20;19.40;58.50
64143;DHT22;50437;51.970;5.904;2022-07-29T07:13:46;19.40;58.90
64143;DHT22;50437;51.970;5.904;2022-07-29T07:16:12;19.40;58.70
64143;DHT22;50437;51.970;5.904;2022-07-29T07:18:38;19.50;58.60
64143;DHT22;50437;51.970;5.904;2022-07-29T07:21:04;19.70;59.20
64143;DHT22;50437;51.970;5.904;2022-07-29T07:23:31;19.50;58.40
64143;DHT22;50437;51.970;5.904;2022-07-29T07:25:57;19.30;58.30
64143;DHT22;50437;51.970;5.904;2022-07-29T07:28:23;19.40;60.00
64143;DHT22;50437;51.970;5.904;2022-07-29T07:30:49;19.30;60.00
64143;DHT22;50437;51.970;5.904;2022-07-29T07:33:14;19.20;61.10
64143;DHT22;50437;51.970;5.904;2022-07-29T07:35:41;19.00;61.30
64143;DHT22;50437;51.970;5.904;2022-07-29T07:38:07;18.90;61.90
64143;DHT22;50437;51.970;5.904;2022-07-29T07:40:33;18.80;61.40
64143;DHT22;50437;51.970;5.904;2022-07-29T07:42:59;18.70;61.60
64143;DHT22;50437;51.970;5.904;2022-07-29T07:45:25;18.60;63.20
64143;DHT22;50437;51.970;5.904;2022-07-29T07:47:51;18.60;63.10
64143;DHT22;50437;51.970;5.904;2022-07-29T07:50:17;18.70;64.30
64143;DHT22;50437;51.970;5.904;2022-07-29T07:52:50;18.70;64.20
64143;DHT22;50437;51.970;5.904;2022-07-29T07:55:17;18.60;63.40
64143;DHT22;50437;51.970;5.904;2022-07-29T07:57:43;18.40;65.60
64143;DHT22;50437;51.970;5.904;2022-07-29T08:00:10;18.50;64.20
64143;DHT22;50437;51.970;5.904;2022-07-29T08:02:38;18.60;64.60
64143;DHT22;50437;51.970;5.904;2022-07-29T08:05:05;18.50;62.90
64143;DHT22;50437;51.970;5.904;2022-07-29T08:07:32;18.60;64.30
64143;DHT22;50437;51.970;5.904;2022-07-29T08:09:58;18.70;62.90
64143;DHT22;50437;51.970;5.904;2022-07-29T08:12:24;18.70;62.20
64143;DHT22;50437;51.970;5.904;2022-07-29T08:14:50;18.70;63.60
64143;DHT22;50437;51.970;5.904;2022-07-29T08:17:16;18.80;63.00
64143;DHT22;50437;51.970;5.904;2022-07-29T08:19:41;18.70;62.60
64143;DHT22;50437;51.970;5.904;2022-07-29T08:22:07;18.80;64.50
64143;DHT22;50437;51.970;5.904;2022-07-29T08:24:33;18.90;62.50
64143;DHT22;50437;51.970;5.904;2022-07-29T08:27:12;18.90;63.90
64143;DHT22;50437;51.970;5.904;2022-07-29T08:29:38;19.10;63.60
64143;DHT22;50437;51.970;5.904;2022-07-29T08:32:04;19.10;62.30
64143;DHT22;50437;51.970;5.904;2022-07-29T08:34:30;18.90;62.60
64143;DHT22;50437;51.970;5.904;2022-07-29T08:36:56;19.00;63.20
64143;DHT22;50437;51.970;5.904;2022-07-29T08:39:23;19.10;63.20
64143;DHT22;50437;51.970;5.904;2022-07-29T08:41:49;19.30;63.50
64143;DHT22;50437;51.970;5.904;2022-07-29T08:44:16;19.30;62.90
64143;DHT22;50437;51.970;5.904;2022-07-29T08:46:43;19.20;63.30
64143;DHT22;50437;51.970;5.904;2022-07-29T08:49:09;19.30;62.50
64143;DHT22;50437;51.970;5.904;2022-07-29T08:51:35;19.30;61.30
64143;DHT22;50437;51.970;5.904;2022-07-29T08:54:02;19.30;62.20
64143;DHT22;50437;51.970;5.904;2022-07-29T08:56:28;19.30;61.60
64143;DHT22;50437;51.970;5.904;2022-07-29T08:58:54;19.40;63.20
64143;DHT22;50437;51.970;5.904;2022-07-29T09:01:23;19.50;61.30
64143;DHT22;50437;51.970;5.904;2022-07-29T09:03:50;19.50;62.20
64143;DHT22;50437;51.970;5.904;2022-07-29T09:06:17;19.70;61.00
64143;DHT22;50437;51.970;5.904;2022-07-29T09:08:46;19.70;61.90
64143;DHT22;50437;51.970;5.904;2022-07-29T09:11:13;19.70;62.10
64143;DHT22;50437;51.970;5.904;2022-07-29T09:13:39;19.70;62.30
64143;DHT22;50437;51.970;5.904;2022-07-29T09:16:05;19.80;62.70
64143;DHT22;50437;51.970;5.904;2022-07-29T09:21:00;19.80;61.70
64143;DHT22;50437;51.970;5.904;2022-07-29T09:26:44;19.90;61.30
64143;DHT22;50437;51.970;5.904;2022-07-29T09:29:11;19.80;61.00
64143;DHT22;50437;51.970;5.904;2022-07-29T09:31:39;19.80;61.70
64143;DHT22;50437;51.970;5.904;2022-07-29T09:34:05;19.80;61.50
64143;DHT22;50437;51.970;5.904;2022-07-29T09:36:38;19.80;62.30
64143;DHT22;50437;51.970;5.904;2022-07-29T09:39:04;19.70;62.40
64143;DHT22;50437;51.970;5.904;2022-07-29T09:41:30;19.70;61.90
64143;DHT22;50437;51.970;5.904;2022-07-29T09:44:09;19.70;62.80
64143;DHT22;50437;51.970;5.904;2022-07-29T09:46:35;19.80;63.10
64143;DHT22;50437;51.970;5.904;2022-07-29T09:49:08;19.90;62.20
64143;DHT22;50437;51.970;5.904;2022-07-29T09:51:35;20.00;62.10
64143;DHT22;50437;51.970;5.904;2022-07-29T09:54:01;20.00;61.90
64143;DHT22;50437;51.970;5.904;2022-07-29T09:56:39;20.00;61.50
64143;DHT22;50437;51.970;5.904;2022-07-29T09:59:06;20.10;61.50
64143;DHT22;50437;51.970;5.904;2022-07-29T10:01:34;20.60;60.40
64143;DHT22;50437;51.970;5.904;2022-07-29T10:04:01;21.20;60.30
64143;DHT22;50437;51.970;5.904;2022-07-29T10:06:27;22.00;57.10
64143;DHT22;50437;51.970;5.904;2022-07-29T10:08:54;22.60;56.50
64143;DHT22;50437;51.970;5.904;2022-07-29T10:11:20;23.50;52.60
64143;DHT22;50437;51.970;5.904;2022-07-29T10:13:47;24.20;49.70
64143;DHT22;50437;51.970;5.904;2022-07-29T10:16:14;24.70;49.00
64143;DHT22;50437;51.970;5.904;2022-07-29T10:18:41;25.60;47.70
64143;DHT22;50437;51.970;5.904;2022-07-29T10:21:08;26.00;45.00
64143;DHT22;50437;51.970;5.904;2022-07-29T10:23:35;26.90;45.20
64143;DHT22;50437;51.970;5.904;2022-07-29T10:26:02;28.40;41.70
64143;DHT22;50437;51.970;5.904;2022-07-29T10:28:29;29.30;37.60
64143;DHT22;50437;51.970;5.904;2022-07-29T10:30:58;30.20;37.30
64143;DHT22;50437;51.970;5.904;2022-07-29T10:33:44;30.50;35.30
64143;DHT22;50437;51.970;5.904;2022-07-29T10:38:50;29.60;33.30
64143;DHT22;50437;51.970;5.904;2022-07-29T10:44:08;28.30;37.00
64143;DHT22;50437;51.970;5.904;2022-07-29T10:46:35;28.00;37.60
64143;DHT22;50437;51.970;5.904;2022-07-29T10:49:09;28.20;37.90
64143;DHT22;50437;51.970;5.904;2022-07-29T10:54:17;27.60;37.40
64143;DHT22;50437;51.970;5.904;2022-07-29T10:56:43;26.90;39.30
64143;DHT22;50437;51.970;5.904;2022-07-29T11:01:43;27.40;38.70
64143;DHT22;50437;51.970;5.904;2022-07-29T11:04:09;27.70;38.90
64143;DHT22;50437;51.970;5.904;2022-07-29T11:07:06;28.20;37.00
64143;DHT22;50437;51.970;5.904;2022-07-29T11:09:22;28.60;36.10
64143;DHT22;50437;51.970;5.904;2022-07-29T11:11:48;28.50;35.10
64143;DHT22;50437;51.970;5.904;2022-07-29T11:14:14;29.10;34.20
64143;DHT22;50437;51.970;5.904;2022-07-29T11:17:00;29.10;34.00
64143;DHT22;50437;51.970;5.904;2022-07-29T11:19:29;29.30;34.90
64143;DHT22;50437;51.970;5.904;2022-07-29T11:21:55;28.90;35.20
64143;DHT22;50437;51.970;5.904;2022-07-29T11:24:25;28.80;34.80
64143;DHT22;50437;51.970;5.904;2022-07-29T11:29:39;29.50;35.70
64143;DHT22;50437;51.970;5.904;2022-07-29T11:32:10;29.80;32.80
64143;DHT22;50437;51.970;5.904;2022-07-29T11:34:36;29.50;33.60
64143;DHT22;50437;51.970;5.904;2022-07-29T11:39:35;29.50;33.60
64143;DHT22;50437;51.970;5.904;2022-07-29T11:47:39;28.90;36.10
64143;DHT22;50437;51.970;5.904;2022-07-29T11:50:06;28.90;34.50
64143;DHT22;50437;51.970;5.904;2022-07-29T11:52:33;29.10;35.10
64143;DHT22;50437;51.970;5.904;2022-07-29T11:55:03;29.30;34.40
64143;DHT22;50437;51.970;5.904;2022-07-29T11:57:30;29.10;34.70
64143;DHT22;50437;51.970;5.904;2022-07-29T11:59:57;28.90;34.70
64143;DHT22;50437;51.970;5.904;2022-07-29T12:02:23;28.50;34.40
64143;DHT22;50437;51.970;5.904;2022-07-29T12:04:50;28.00;34.80
64143;DHT22;50437;51.970;5.904;2022-07-29T12:07:16;27.30;38.20
64143;DHT22;50437;51.970;5.904;2022-07-29T12:09:49;27.10;38.60
64143;DHT22;50437;51.970;5.904;2022-07-29T12:12:16;27.40;37.90
64143;DHT22;50437;51.970;5.904;2022-07-29T12:14:42;27.60;38.70
64143;DHT22;50437;51.970;5.904;2022-07-29T12:17:24;27.60;38.20
64143;DHT22;50437;51.970;5.904;2022-07-29T12:19:50;27.50;38.20
64143;DHT22;50437;51.970;5.904;2022-07-29T12:22:24;27.40;38.50
64143;DHT22;50437;51.970;5.904;2022-07-29T12:24:50;27.20;37.70
64143;DHT22;50437;51.970;5.904;2022-07-29T12:27:16;27.20;40.00
64143;DHT22;50437;51.970;5.904;2022-07-29T12:29:42;27.40;38.30
64143;DHT22;50437;51.970;5.904;2022-07-29T12:32:08;27.90;39.50
64143;DHT22;50437;51.970;5.904;2022-07-29T12:34:34;28.00;38.90
64143;DHT22;50437;51.970;5.904;2022-07-29T12:37:00;28.50;35.90
64143;DHT22;50437;51.970;5.904;2022-07-29T12:39:26;28.50;35.50
64143;DHT22;50437;51.970;5.904;2022-07-29T12:41:53;28.70;35.30
64143;DHT22;50437;51.970;5.904;2022-07-29T12:44:19;28.90;35.80
64143;DHT22;50437;51.970;5.904;2022-07-29T12:46:45;28.60;34.00
64143;DHT22;50437;51.970;5.904;2022-07-29T12:49:22;28.80;35.30
64143;DHT22;50437;51.970;5.904;2022-07-29T12:51:48;29.10;35.00
64143;DHT22;50437;51.970;5.904;2022-07-29T12:54:14;29.10;32.30
64143;DHT22;50437;51.970;5.904;2022-07-29T12:56:43;29.00;33.70
64143;DHT22;50437;51.970;5.904;2022-07-29T13:01:41;28.70;34.10
64143;DHT22;50437;51.970;5.904;2022-07-29T13:04:07;28.60;34.80
64143;DHT22;50437;51.970;5.904;2022-07-29T13:06:37;28.10;34.40
64143;DHT22;50437;51.970;5.904;2022-07-29T13:09:08;28.00;35.30
64143;DHT22;50437;51.970;5.904;2022-07-29T13:11:36;27.20;35.50
64143;DHT22;50437;51.970;5.904;2022-07-29T13:14:03;26.90;37.10
64143;DHT22;50437;51.970;5.904;2022-07-29T13:16:29;27.00;38.40
64143;DHT22;50437;51.970;5.904;2022-07-29T13:19:09;27.00;38.00
64143;DHT22;50437;51.970;5.904;2022-07-29T13:21:35;27.40;37.50
64143;DHT22;50437;51.970;5.904;2022-07-29T13:24:01;27.70;36.30
64143;DHT22;50437;51.970;5.904;2022-07-29T13:26:27;28.10;35.60
64143;DHT22;50437;51.970;5.904;2022-07-29T13:28:54;28.50;35.20
64143;DHT22;50437;51.970;5.904;2022-07-29T13:31:20;28.70;35.10
64143;DHT22;50437;51.970;5.904;2022-07-29T13:33:47;29.10;34.50
64143;DHT22;50437;51.970;5.904;2022-07-29T13:36:13;29.20;32.60
64143;DHT22;50437;51.970;5.904;2022-07-29T13:38:39;29.10;32.70
64143;DHT22;50437;51.970;5.904;2022-07-29T13:41:05;29.20;33.00
64143;DHT22;50437;51.970;5.904;2022-07-29T13:43:31;29.30;32.40
64143;DHT22;50437;51.970;5.904;2022-07-29T13:45:57;29.30;29.80
64143;DHT22;50437;51.970;5.904;2022-07-29T13:48:23;28.90;31.30
64143;DHT22;50437;51.970;5.904;2022-07-29T13:50:49;28.80;32.60
64143;DHT22;50437;51.970;5.904;2022-07-29T13:53:15;28.60;32.30
64143;DHT22;50437;51.970;5.904;2022-07-29T13:55:41;28.70;31.40
64143;DHT22;50437;51.970;5.904;2022-07-29T13:58:07;28.70;32.10
64143;DHT22;50437;51.970;5.904;2022-07-29T14:00:33;28.60;32.00
64143;DHT22;50437;51.970;5.904;2022-07-29T14:02:59;28.70;32.50
64143;DHT22;50437;51.970;5.904;2022-07-29T14:05:25;29.10;32.30
64143;DHT22;50437;51.970;5.904;2022-07-29T14:07:51;29.30;31.50
64143;DHT22;50437;51.970;5.904;2022-07-29T14:10:17;29.10;31.30
64143;DHT22;50437;51.970;5.904;2022-07-29T14:12:43;28.90;30.50
64143;DHT22;50437;51.970;5.904;2022-07-29T14:15:09;28.70;30.80
64143;DHT22;50437;51.970;5.904;2022-07-29T14:17:35;28.80;31.40
64143;DHT22;50437;51.970;5.904;2022-07-29T14:20:01;28.90;32.40
64143;DHT22;50437;51.970;5.904;2022-07-29T14:22:27;28.60;32.00
64143;DHT22;50437;51.970;5.904;2022-07-29T14:24:53;28.20;32.60
64143;DHT22;50437;51.970;5.904;2022-07-29T14:27:19;28.10;32.40
64143;DHT22;50437;51.970;5.904;2022-07-29T14:29:45;28.10;33.20
64143;DHT22;50437;51.970;5.904;2022-07-29T14:32:11;28.20;32.00
64143;DHT22;50437;51.970;5.904;2022-07-29T14:34:37;27.90;33.20
64143;DHT22;50437;51.970;5.904;2022-07-29T14:37:03;27.80;33.80
64143;DHT22;50437;51.970;5.904;2022-07-29T14:39:31;28.00;32.60
64143;DHT22;50437;51.970;5.904;2022-07-29T14:41:57;28.40;34.10
64143;DHT22;50437;51.970;5.904;2022-07-29T14:44:23;28.80;32.80
64143;DHT22;50437;51.970;5.904;2022-07-29T14:46:49;29.20;31.50
64143;DHT22;50437;51.970;5.904;2022-07-29T14:49:15;29.20;31.70
64143;DHT22;50437;51.970;5.904;2022-07-29T14:51:41;29.40;30.40
64143;DHT22;50437;51.970;5.904;2022-07-29T14:54:07;29.00;30.40
64143;DHT22;50437;51.970;5.904;2022-07-29T14:56:33;29.20;31.30
64143;DHT22;50437;51.970;5.904;2022-07-29T14:58:59;29.50;31.20
64143;DHT22;50437;51.970;5.904;2022-07-29T15:01:26;29.60;31.70
64143;DHT22;50437;51.970;5.904;2022-07-29T15:03:52;29.60;30.30
64143;DHT22;50437;51.970;5.904;2022-07-29T15:06:18;29.30;31.10
64143;DHT22;50437;51.970;5.904;2022-07-29T15:08:44;29.30;32.10
64143;DHT22;50437;51.970;5.904;2022-07-29T15:11:10;29.50;30.10
64143;DHT22;50437;51.970;5.904;2022-07-29T15:13:36;29.40;31.30
64143;DHT22;50437;51.970;5.904;2022-07-29T15:16:02;29.60;30.40
64143;DHT22;50437;51.970;5.904;2022-07-29T15:18:30;28.80;29.90
64143;DHT22;50437;51.970;5.904;2022-07-29T15:20:56;28.50;31.70
64143;DHT22;50437;51.970;5.904;2022-07-29T15:23:22;28.10;32.60
64143;DHT22;50437;51.970;5.904;2022-07-29T15:25:48;27.80;33.70
64143;DHT22;50437;51.970;5.904;2022-07-29T15:28:14;27.50;32.90
64143;DHT22;50437;51.970;5.904;2022-07-29T15:30:41;27.40;33.70
64143;DHT22;50437;51.970;5.904;2022-07-29T15:33:07;27.30;34.60
64143;DHT22;50437;51.970;5.904;2022-07-29T15:35:35;27.40;34.10
64143;DHT22;50437;51.970;5.904;2022-07-29T15:38:01;27.30;34.40
64143;DHT22;50437;51.970;5.904;2022-07-29T15:40:27;27.20;34.30
64143;DHT22;50437;51.970;5.904;2022-07-29T15:42:53;27.10;35.00
64143;DHT22;50437;51.970;5.904;2022-07-29T15:45:19;26.90;35.50
64143;DHT22;50437;51.970;5.904;2022-07-29T15:47:45;26.80;36.80
64143;DHT22;50437;51.970;5.904;2022-07-29T15:50:11;26.70;36.50
64143;DHT22;50437;51.970;5.904;2022-07-29T15:52:41;26.60;36.80
64143;DHT22;50437;51.970;5.904;2022-07-29T15:55:07;26.40;37.80
64143;DHT22;50437;51.970;5.904;2022-07-29T15:57:33;26.30;38.10
64143;DHT22;50437;51.970;5.904;2022-07-29T15:59:59;26.10;38.40
64143;DHT22;50437;51.970;5.904;2022-07-29T16:02:25;26.00;39.30
64143;DHT22;50437;51.970;5.904;2022-07-29T16:04:51;25.90;39.00